createdAt,value
2022-08-25T00:00:33.002Z,5.18
2022-08-25T00:01:39.871Z,4.53
2022-08-25T00:03:05.280Z,5.13
2022-08-25T00:04:15.009Z,3.28
2022-08-25T00:05:36.602Z,3.38
2022-08-25T00:06:48.572Z,4.20
2022-08-25T00:09:22.832Z,4.03
2022-08-25T00:10:38.964Z,4.13
2022-08-25T00:11:59.980Z,3.30
2022-08-25T00:13:05.360Z,3.75
2022-08-25T00:14:28.797Z,3.92
2022-08-25T00:15:41.816Z,4.00
2022-08-25T00:17:01.281Z,4.72
2022-08-25T00:18:11.390Z,5.57
2022-08-25T00:19:30.960Z,5.45
2022-08-25T00:20:35.429Z,5.15
2022-08-25T00:21:45.101Z,5.05
2022-08-25T00:22:53.611Z,5.20
2022-08-25T00:24:05.723Z,4.80
2022-08-25T00:25:16.664Z,4.97
2022-08-25T00:26:24.846Z,5.03
2022-08-25T00:27:31.869Z,4.72
2022-08-25T00:28:46.007Z,3.70
2022-08-25T00:30:30.321Z,4.20
2022-08-25T00:31:43.288Z,3.85
2022-08-25T00:33:16.351Z,3.85
2022-08-25T00:34:43.493Z,4.55
2022-08-25T00:36:00.449Z,4.65
2022-08-25T00:37:39.899Z,5.10
2022-08-25T00:39:13.312Z,4.00
2022-08-25T00:40:18.108Z,4.10
2022-08-25T00:41:52.968Z,4.97
2022-08-25T00:43:03.274Z,4.97
2022-08-25T00:44:11.010Z,4.38
2022-08-25T00:45:45.679Z,4.40
2022-08-25T00:46:53.419Z,8.98
2022-08-25T00:48:50.190Z,8.95
2022-08-25T00:50:26.581Z,8.25
2022-08-25T00:51:41.686Z,7.20
2022-08-25T00:53:00.896Z,6.10
2022-08-25T00:54:36.644Z,6.45
2022-08-25T00:55:49.544Z,5.63
2022-08-25T00:56:55.540Z,5.88
2022-08-25T00:58:32.815Z,5.80
2022-08-25T00:59:44.858Z,6.05
2022-08-25T01:01:13.541Z,5.97
2022-08-25T01:02:19.441Z,5.07
2022-08-25T01:03:35.715Z,5.85
2022-08-25T01:04:51.782Z,5.82
2022-08-25T01:05:57.501Z,6.63
2022-08-25T01:07:17.464Z,6.53
2022-08-25T01:08:29.737Z,5.15
2022-08-25T01:11:47.172Z,5.07
2022-08-25T01:12:59.670Z,5.32
2022-08-25T01:14:10.531Z,5.10
2022-08-25T01:15:38.729Z,6.40
2022-08-25T01:16:47.114Z,5.18
2022-08-25T01:18:17.290Z,4.78
2022-08-25T01:20:11.060Z,6.15
2022-08-25T01:21:18.801Z,5.28
2022-08-25T01:22:55.401Z,5.20
2022-08-25T01:24:04.816Z,5.00
2022-08-25T01:25:24.209Z,5.20
2022-08-25T01:27:07.857Z,5.03
2022-08-25T01:28:30.763Z,5.18
2022-08-25T01:30:01.679Z,5.38
2022-08-25T01:31:23.934Z,6.53
2022-08-25T01:32:40.925Z,6.38
2022-08-25T01:33:54.166Z,4.82
2022-08-25T01:34:59.521Z,5.35
2022-08-25T01:36:23.446Z,6.10
2022-08-25T01:39:37.158Z,6.50
2022-08-25T01:40:56.380Z,4.90
2022-08-25T01:42:29.348Z,6.05
2022-08-25T01:44:07.617Z,4.88
2022-08-25T01:46:15.041Z,4.95
2022-08-25T01:47:19.301Z,6.18
2022-08-25T01:48:35.044Z,5.20
2022-08-25T01:49:57.998Z,5.25
2022-08-25T01:51:04.117Z,6.82
2022-08-25T01:53:01.488Z,6.25
2022-08-25T01:54:05.898Z,6.93
2022-08-25T01:58:28.761Z,5.75
2022-08-25T02:00:02.403Z,5.90
2022-08-25T02:01:59.917Z,5.78
2022-08-25T02:03:19.247Z,6.22
2022-08-25T02:04:30.908Z,5.20
2022-08-25T02:08:37.429Z,4.93
2022-08-25T02:10:03.395Z,5.63
2022-08-25T02:11:28.221Z,4.25
2022-08-25T02:12:37.317Z,4.10
2022-08-25T02:13:57.839Z,4.00
2022-08-25T02:15:48.572Z,4.45
2022-08-25T02:19:06.791Z,5.57
2022-08-25T02:21:10.689Z,6.07
2022-08-25T02:26:00.124Z,5.72
2022-08-25T02:27:13.768Z,5.30
2022-08-25T02:29:10.959Z,5.00
2022-08-25T02:31:59.207Z,4.80
2022-08-25T02:33:22.195Z,4.95
2022-08-25T02:34:52.970Z,4.80
2022-08-25T02:36:08.307Z,4.32
2022-08-25T02:37:48.260Z,4.72
2022-08-25T02:39:08.901Z,4.50
2022-08-25T02:41:13.960Z,4.82
2022-08-25T02:42:40.289Z,4.70
2022-08-25T02:43:52.562Z,4.57
2022-08-25T02:46:29.336Z,4.70
2022-08-25T02:48:15.460Z,4.38
2022-08-25T02:52:58.993Z,4.75
2022-08-25T02:57:06.838Z,4.40
2022-08-25T02:59:00.999Z,4.05
2022-08-25T03:00:34.939Z,4.45
2022-08-25T03:03:43.468Z,4.65
2022-08-25T03:04:52.113Z,4.93
2022-08-25T03:06:40.467Z,3.88
2022-08-25T03:08:17.469Z,5.05
2022-08-25T03:09:21.669Z,4.90
2022-08-25T03:10:32.884Z,5.82
2022-08-25T03:11:42.905Z,5.18
2022-08-25T03:12:48.199Z,5.68
2022-08-25T03:13:51.900Z,5.82
2022-08-25T03:15:12.956Z,5.72
2022-08-25T03:16:17.463Z,5.15
2022-08-25T03:17:24.548Z,5.70
2022-08-25T03:18:34.162Z,5.90
2022-08-25T03:19:45.580Z,5.75
2022-08-25T03:20:49.512Z,6.38
2022-08-25T03:21:56.737Z,5.60
2022-08-25T03:23:48.888Z,4.15
2022-08-25T03:25:23.471Z,4.22
2022-08-25T03:26:45.877Z,4.57
2022-08-25T03:27:52.265Z,5.22
2022-08-25T03:28:56.084Z,5.57
2022-08-25T03:30:01.111Z,5.75
2022-08-25T03:31:05.892Z,5.40
2022-08-25T03:32:11.764Z,5.80
2022-08-25T03:33:15.789Z,5.72
2022-08-25T03:34:22.110Z,5.47
2022-08-25T03:35:26.170Z,5.45
2022-08-25T03:36:33.834Z,5.55
2022-08-25T03:37:37.898Z,6.15
2022-08-25T03:38:43.158Z,4.85
2022-08-25T03:39:48.576Z,5.57
2022-08-25T03:40:53.827Z,6.10
2022-08-25T03:41:57.728Z,5.88
2022-08-25T03:43:47.592Z,5.90
2022-08-25T03:44:53.240Z,5.45
2022-08-25T03:45:58.359Z,5.45
2022-08-25T03:47:02.232Z,5.65
2022-08-25T03:48:07.090Z,5.25
2022-08-25T03:49:13.482Z,5.07
2022-08-25T03:50:21.118Z,4.65
2022-08-25T03:51:27.942Z,5.55
2022-08-25T03:52:31.556Z,4.93
2022-08-25T03:53:36.320Z,4.82
2022-08-25T03:54:39.919Z,5.70
2022-08-25T03:55:46.328Z,4.60
2022-08-25T03:56:53.471Z,4.72
2022-08-25T03:57:58.452Z,5.25
2022-08-25T03:59:02.028Z,4.72
2022-08-25T04:00:08.739Z,5.60
2022-08-25T04:01:15.884Z,5.93
2022-08-25T04:02:23.066Z,5.82
2022-08-25T04:03:26.548Z,5.78
2022-08-25T04:04:31.412Z,5.90
2022-08-25T04:05:35.553Z,5.10
2022-08-25T04:06:40.556Z,5.03
2022-08-25T04:07:44.180Z,5.30
2022-08-25T04:08:49.211Z,6.13
2022-08-25T04:09:54.533Z,6.55
2022-08-25T04:11:04.645Z,5.97
2022-08-25T04:12:14.419Z,5.75
2022-08-25T04:13:19.715Z,5.78
2022-08-25T04:14:24.024Z,5.38
2022-08-25T04:15:30.049Z,5.50
2022-08-25T04:16:35.365Z,4.88
2022-08-25T04:17:41.318Z,5.40
2022-08-25T04:18:46.561Z,4.90
2022-08-25T04:19:50.947Z,5.65
2022-08-25T04:21:04.157Z,5.60
2022-08-25T04:22:07.781Z,5.20
2022-08-25T04:23:12.660Z,5.45
2022-08-25T04:24:16.322Z,5.30
2022-08-25T04:25:20.931Z,5.88
2022-08-25T04:26:27.729Z,5.75
2022-08-25T04:27:32.517Z,5.30
2022-08-25T04:28:36.417Z,5.38
2022-08-25T04:29:40.909Z,5.70
2022-08-25T04:30:45.696Z,5.82
2022-08-25T04:31:52.162Z,6.20
2022-08-25T04:32:55.741Z,6.63
2022-08-25T04:34:04.421Z,6.15
2022-08-25T04:35:19.672Z,5.90
2022-08-25T04:36:24.059Z,5.82
2022-08-25T04:37:28.760Z,5.10
2022-08-25T04:38:32.698Z,5.65
2022-08-25T04:39:37.494Z,5.22
2022-08-25T04:40:40.822Z,5.00
2022-08-25T04:41:46.679Z,4.90
2022-08-25T04:42:50.027Z,4.60
2022-08-25T04:43:56.157Z,5.28
2022-08-25T04:45:02.208Z,4.78
2022-08-25T04:46:08.310Z,5.43
2022-08-25T04:47:12.188Z,4.80
2022-08-25T04:48:16.618Z,5.25
2022-08-25T04:49:19.941Z,4.80
2022-08-25T04:50:24.959Z,5.10
2022-08-25T04:51:31.082Z,4.90
2022-08-25T04:52:35.651Z,4.50
2022-08-25T04:53:39.698Z,5.25
2022-08-25T04:54:44.290Z,4.82
2022-08-25T04:55:48.880Z,4.18
2022-08-25T04:56:58.350Z,4.82
2022-08-25T04:58:02.202Z,4.72
2022-08-25T04:59:09.638Z,4.88
2022-08-25T05:00:15.147Z,5.22
2022-08-25T05:01:21.661Z,4.72
2022-08-25T05:02:26.729Z,5.27
2022-08-25T05:03:31.358Z,5.27
2022-08-25T05:04:37.164Z,6.88
2022-08-25T05:05:40.539Z,5.40
2022-08-25T05:06:45.419Z,5.43
2022-08-25T05:07:48.684Z,5.90
2022-08-25T05:08:53.070Z,5.30
2022-08-25T05:09:56.243Z,5.85
2022-08-25T05:11:00.740Z,6.50
2022-08-25T05:12:10.811Z,6.05
2022-08-25T05:13:15.778Z,5.97
2022-08-25T05:14:26.205Z,5.70
2022-08-25T05:15:48.199Z,5.37
2022-08-25T05:16:55.688Z,5.90
2022-08-25T05:17:58.874Z,6.32
2022-08-25T05:19:02.931Z,6.55
2022-08-25T05:20:07.879Z,5.65
2022-08-25T05:21:15.889Z,6.10
2022-08-25T05:22:20.138Z,6.13
2022-08-25T05:23:24.502Z,6.35
2022-08-25T05:24:29.858Z,5.97
2022-08-25T05:25:33.319Z,6.80
2022-08-25T05:26:38.612Z,6.50
2022-08-25T05:27:44.198Z,6.50
2022-08-25T05:28:48.910Z,7.77
2022-08-25T05:29:52.101Z,7.28
2022-08-25T05:30:59.852Z,7.57
2022-08-25T05:32:03.990Z,5.90
2022-08-25T05:33:08.846Z,6.18
2022-08-25T05:34:12.558Z,5.77
2022-08-25T05:35:17.009Z,5.27
2022-08-25T05:36:22.080Z,5.57
2022-08-25T05:37:26.629Z,5.50
2022-08-25T05:38:29.902Z,5.23
2022-08-25T05:39:34.468Z,5.47
2022-08-25T05:40:38.014Z,5.00
2022-08-25T05:41:42.520Z,5.57
2022-08-25T05:42:47.151Z,4.90
2022-08-25T05:43:51.596Z,4.47
2022-08-25T05:44:54.920Z,5.73
2022-08-25T05:45:59.918Z,4.50
2022-08-25T05:47:03.274Z,4.73
2022-08-25T05:48:07.661Z,4.20
2022-08-25T05:49:11.892Z,3.90
2022-08-25T05:50:15.306Z,4.30
2022-08-25T05:51:20.151Z,4.20
2022-08-25T05:52:23.608Z,4.07
2022-08-25T05:53:28.701Z,4.00
2022-08-25T05:54:35.378Z,4.63
2022-08-25T05:55:38.467Z,4.77
2022-08-25T05:56:42.570Z,3.93
2022-08-25T05:57:47.372Z,4.57
2022-08-25T05:58:51.762Z,3.93
2022-08-25T05:59:54.916Z,4.30
2022-08-25T06:01:21.463Z,4.10
2022-08-25T06:02:44.372Z,5.23
2022-08-25T06:03:48.021Z,4.10
2022-08-25T06:04:52.232Z,5.17
2022-08-25T06:05:55.530Z,4.17
2022-08-25T06:07:10.376Z,4.03
2022-08-25T06:08:20.349Z,5.67
2022-08-25T06:09:25.155Z,5.40
2022-08-25T06:10:28.550Z,5.07
2022-08-25T06:11:32.759Z,4.30
2022-08-25T06:12:36.660Z,4.63
2022-08-25T06:13:42.350Z,4.93
2022-08-25T06:14:46.783Z,3.93
2022-08-25T06:15:51.081Z,4.37
2022-08-25T06:16:55.451Z,4.37
2022-08-25T06:18:00.985Z,4.40
2022-08-25T06:19:06.389Z,4.07
2022-08-25T06:20:12.880Z,4.47
2022-08-25T06:21:17.119Z,4.33
2022-08-25T06:22:21.650Z,4.27
2022-08-25T06:23:24.859Z,4.40
2022-08-25T06:24:30.529Z,4.57
2022-08-25T06:25:35.511Z,3.97
2022-08-25T06:26:38.700Z,5.03
2022-08-25T06:27:43.078Z,4.03
2022-08-25T06:28:48.630Z,4.60
2022-08-25T06:29:56.038Z,4.27
2022-08-25T06:31:01.531Z,4.63
2022-08-25T06:32:05.113Z,4.20
2022-08-25T06:33:09.378Z,3.93
2022-08-25T06:34:15.003Z,4.80
2022-08-25T06:35:20.901Z,5.10
2022-08-25T06:36:25.090Z,4.60
2022-08-25T06:37:28.224Z,4.37
2022-08-25T06:38:32.490Z,4.93
2022-08-25T06:39:36.771Z,4.13
2022-08-25T06:40:39.823Z,5.17
2022-08-25T06:41:44.078Z,4.43
2022-08-25T06:42:50.308Z,4.70
2022-08-25T06:43:57.990Z,4.50
2022-08-25T06:45:10.791Z,4.57
2022-08-25T06:46:16.829Z,5.63
2022-08-25T06:47:20.386Z,4.57
2022-08-25T06:48:24.952Z,4.30
2022-08-25T06:49:31.820Z,4.03
2022-08-25T06:50:40.211Z,4.47
2022-08-25T06:51:43.420Z,5.10
2022-08-25T06:52:47.621Z,4.33
2022-08-25T06:53:51.138Z,4.30
2022-08-25T06:54:55.423Z,4.70
2022-08-25T06:56:02.261Z,4.50
2022-08-25T06:57:09.498Z,5.13
2022-08-25T06:58:12.651Z,4.33
2022-08-25T06:59:18.509Z,4.50
2022-08-25T07:00:21.763Z,4.77
2022-08-25T07:01:27.940Z,4.90
2022-08-25T07:02:31.144Z,4.17
2022-08-25T07:03:39.661Z,4.87
2022-08-25T07:04:43.950Z,4.10
2022-08-25T07:05:52.878Z,4.27
2022-08-25T07:06:57.159Z,4.70
2022-08-25T07:08:01.686Z,4.87
2022-08-25T07:09:06.666Z,4.40
2022-08-25T07:10:11.810Z,4.77
2022-08-25T07:11:17.560Z,5.00
2022-08-25T07:12:24.903Z,5.07
2022-08-25T07:13:32.040Z,5.87
2022-08-25T07:14:38.128Z,4.73
2022-08-25T07:15:42.712Z,4.03
2022-08-25T07:16:50.301Z,4.40
2022-08-25T07:17:54.879Z,4.87
2022-08-25T07:19:00.385Z,4.90
2022-08-25T07:20:05.211Z,5.87
2022-08-25T07:21:09.348Z,5.87
2022-08-25T07:22:13.643Z,5.47
2022-08-25T07:23:16.680Z,4.50
2022-08-25T07:24:20.902Z,4.77
2022-08-25T07:25:24.141Z,5.43
2022-08-25T07:26:37.833Z,4.57
2022-08-25T07:27:42.890Z,4.40
2022-08-25T07:28:47.445Z,5.33
2022-08-25T07:29:54.280Z,4.80
2022-08-25T07:31:01.286Z,4.80
2022-08-25T07:32:07.182Z,4.60
2022-08-25T07:33:11.817Z,5.00
2022-08-25T07:34:35.848Z,4.40
2022-08-25T07:35:43.780Z,5.20
2022-08-25T07:36:48.327Z,4.77
2022-08-25T07:37:55.900Z,5.10
2022-08-25T07:39:04.866Z,4.87
2022-08-25T07:40:09.591Z,5.17
2022-08-25T07:41:14.413Z,4.60
2022-08-25T07:42:18.121Z,4.60
2022-08-25T07:43:23.907Z,4.97
2022-08-25T07:44:27.901Z,4.53
2022-08-25T07:45:35.482Z,4.20
2022-08-25T07:46:38.849Z,5.13
2022-08-25T07:47:43.379Z,4.97
2022-08-25T07:48:53.095Z,5.25
2022-08-25T07:49:57.860Z,4.60
2022-08-25T07:51:07.706Z,4.77
2022-08-25T07:52:12.870Z,5.93
2022-08-25T07:53:17.660Z,6.43
2022-08-25T07:54:21.860Z,4.53
2022-08-25T07:55:37.459Z,4.60
2022-08-25T07:56:43.313Z,4.70
2022-08-25T07:57:50.921Z,5.15
2022-08-25T07:58:59.699Z,4.47
2022-08-25T08:00:03.289Z,4.57
2022-08-25T08:01:18.295Z,4.88
2022-08-25T08:02:21.744Z,5.00
2022-08-25T08:03:45.079Z,4.32
2022-08-25T08:04:50.234Z,5.05
2022-08-25T08:05:56.699Z,4.32
2022-08-25T08:06:59.857Z,5.47
2022-08-25T08:08:05.204Z,5.53
2022-08-25T08:09:08.495Z,5.47
2022-08-25T08:11:54.470Z,4.95
2022-08-25T08:12:57.669Z,5.20
2022-08-25T08:14:02.748Z,5.43
2022-08-25T08:15:10.274Z,5.25
2022-08-25T08:16:17.606Z,4.38
2022-08-25T08:17:22.240Z,5.05
2022-08-25T08:18:26.399Z,5.80
2022-08-25T08:19:30.552Z,5.30
2022-08-25T08:20:42.525Z,4.88
2022-08-25T08:21:48.931Z,5.05
2022-08-25T08:22:57.384Z,5.28
2022-08-25T08:24:00.948Z,5.35
2022-08-25T08:25:06.428Z,6.00
2022-08-25T08:26:13.661Z,5.75
2022-08-25T08:27:17.937Z,5.07
2022-08-25T08:28:21.918Z,5.60
2022-08-25T08:29:26.137Z,4.68
2022-08-25T08:30:29.215Z,5.45
2022-08-25T08:31:34.881Z,6.20
2022-08-25T08:33:08.118Z,6.72
2022-08-25T08:34:04.562Z,5.22
2022-08-25T08:35:08.549Z,4.95
2022-08-25T08:36:13.430Z,5.95
2022-08-25T08:37:17.650Z,5.30
2022-08-25T08:38:22.238Z,5.85
2022-08-25T08:39:32.000Z,5.68
2022-08-25T08:40:42.421Z,5.85
2022-08-25T08:42:16.927Z,5.43
2022-08-25T08:43:21.640Z,5.22
2022-08-25T08:44:34.268Z,5.05
2022-08-25T08:45:43.828Z,5.28
2022-08-25T08:46:56.562Z,5.38
2022-08-25T08:48:10.711Z,5.07
2022-08-25T08:49:26.763Z,5.15
2022-08-25T08:50:39.229Z,5.03
2022-08-25T08:51:48.097Z,5.28
2022-08-25T08:52:57.593Z,5.38
2022-08-25T08:54:06.468Z,4.97
2022-08-25T08:55:27.087Z,5.63
2022-08-25T08:56:37.232Z,5.28
2022-08-25T08:57:45.913Z,5.32
2022-08-25T08:58:52.540Z,4.93
2022-08-25T09:00:00.657Z,5.68
2022-08-25T09:01:04.945Z,6.22
2022-08-25T09:02:15.994Z,4.65
2022-08-25T09:03:42.360Z,4.53
2022-08-25T09:04:49.278Z,4.75
2022-08-25T09:05:55.981Z,4.93
2022-08-25T09:06:59.880Z,4.78
2022-08-25T09:08:08.821Z,6.45
2022-08-25T09:09:26.060Z,4.18
2022-08-25T09:10:34.077Z,5.43
2022-08-25T09:11:52.891Z,5.38
2022-08-25T09:13:05.747Z,5.90
2022-08-25T09:14:35.501Z,5.07
2022-08-25T09:16:03.540Z,4.72
2022-08-25T09:17:17.681Z,5.90
2022-08-25T09:18:25.960Z,5.05
2022-08-25T09:19:41.917Z,5.45
2022-08-25T09:20:59.766Z,4.90
2022-08-25T09:22:33.420Z,6.10
2022-08-25T09:23:43.078Z,4.97
2022-08-25T09:24:53.670Z,5.15
2022-08-25T09:26:04.132Z,5.18
2022-08-25T09:27:12.968Z,4.90
2022-08-25T09:28:20.729Z,4.38
2022-08-25T09:29:26.670Z,5.47
2022-08-25T09:30:44.368Z,5.28
2022-08-25T09:31:51.009Z,5.00
2022-08-25T09:33:05.111Z,5.03
2022-08-25T09:34:13.931Z,5.07
2022-08-25T09:35:22.002Z,5.45
2022-08-25T09:36:25.178Z,6.03
2022-08-25T09:37:29.572Z,4.93
2022-08-25T09:38:33.829Z,6.18
2022-08-25T09:39:37.259Z,5.32
2022-08-25T09:40:43.117Z,4.32
2022-08-25T09:41:51.474Z,5.07
2022-08-25T09:42:57.957Z,4.85
2022-08-25T09:44:01.744Z,4.70
2022-08-25T09:45:06.486Z,5.45
2022-08-25T09:46:16.052Z,5.60
2022-08-25T09:47:24.235Z,4.50
2022-08-25T09:48:39.823Z,6.03
2022-08-25T09:49:47.241Z,5.32
2022-08-25T09:50:51.638Z,5.72
2022-08-25T09:51:56.974Z,5.70
2022-08-25T09:53:18.742Z,5.20
2022-08-25T09:54:33.937Z,5.38
2022-08-25T09:55:59.915Z,5.50
2022-08-25T09:57:08.559Z,5.60
2022-08-25T09:58:20.502Z,5.03
2022-08-25T09:59:34.590Z,6.07
2022-08-25T10:00:39.413Z,6.03
2022-08-25T10:01:49.259Z,5.60
2022-08-25T10:03:24.762Z,4.55
2022-08-25T10:04:32.354Z,5.50
2022-08-25T10:05:39.100Z,5.63
2022-08-25T10:06:46.289Z,5.40
2022-08-25T10:07:53.298Z,4.95
2022-08-25T10:09:01.134Z,5.63
2022-08-25T10:10:09.997Z,5.50
2022-08-25T10:11:31.482Z,5.15
2022-08-25T10:12:42.848Z,5.50
2022-08-25T10:13:47.987Z,5.30
2022-08-25T10:14:54.551Z,5.50
2022-08-25T10:16:05.076Z,5.68
2022-08-25T10:17:29.538Z,4.95
2022-08-25T10:18:33.291Z,5.63
2022-08-25T10:19:39.140Z,5.78
2022-08-25T10:20:44.860Z,5.47
2022-08-25T10:22:06.247Z,6.18
2022-08-25T10:23:13.381Z,6.20
2022-08-25T10:24:17.948Z,5.05
2022-08-25T10:25:28.271Z,6.00
2022-08-25T10:26:37.651Z,5.45
2022-08-25T10:27:48.452Z,5.72
2022-08-25T10:29:05.163Z,5.63
2022-08-25T10:30:17.163Z,5.47
2022-08-25T10:31:22.893Z,5.18
2022-08-25T10:32:32.463Z,5.00
2022-08-25T10:33:41.688Z,5.13
2022-08-25T10:34:51.637Z,5.70
2022-08-25T10:36:01.758Z,4.72
2022-08-25T10:37:15.271Z,5.25
2022-08-25T10:38:36.126Z,6.22
2022-08-25T10:39:42.869Z,5.45
2022-08-25T10:40:49.969Z,5.47
2022-08-25T10:42:01.717Z,5.53
2022-08-25T10:43:09.412Z,6.20
2022-08-25T10:44:37.651Z,5.60
2022-08-25T10:45:48.121Z,5.60
2022-08-25T10:46:55.859Z,5.47
2022-08-25T10:48:16.882Z,5.13
2022-08-25T10:49:23.067Z,5.43
2022-08-25T10:50:33.283Z,4.97
2022-08-25T10:51:46.041Z,4.63
2022-08-25T10:53:10.780Z,5.28
2022-08-25T10:54:25.762Z,5.07
2022-08-25T10:55:33.633Z,5.65
2022-08-25T10:56:47.910Z,4.85
2022-08-25T10:58:00.786Z,5.55
2022-08-25T10:59:37.240Z,4.90
2022-08-25T11:00:48.174Z,5.05
2022-08-25T11:02:15.529Z,4.85
2022-08-25T11:03:30.216Z,5.10
2022-08-25T11:04:42.173Z,5.28
2022-08-25T11:05:49.275Z,5.00
2022-08-25T11:06:58.490Z,4.43
2022-08-25T11:08:11.494Z,4.80
2022-08-25T11:09:21.551Z,5.18
2022-08-25T11:10:29.233Z,5.63
2022-08-25T11:11:36.223Z,6.28
2022-08-25T11:12:43.739Z,5.20
2022-08-25T11:13:50.638Z,4.50
2022-08-25T11:14:57.880Z,4.78
2022-08-25T11:16:16.973Z,5.97
2022-08-25T11:17:26.032Z,5.45
2022-08-25T11:18:32.084Z,4.72
2022-08-25T11:19:38.289Z,4.95
2022-08-25T11:20:44.806Z,5.53
2022-08-25T11:21:55.689Z,4.90
2022-08-25T11:23:09.010Z,4.70
2022-08-25T11:24:36.092Z,6.72
2022-08-25T11:25:44.374Z,4.78
2022-08-25T11:26:51.510Z,5.07
2022-08-25T11:27:59.120Z,5.35
2022-08-25T11:29:11.344Z,5.03
2022-08-25T11:30:18.821Z,4.88
2022-08-25T11:31:22.447Z,6.05
2022-08-25T11:32:27.324Z,4.90
2022-08-25T11:33:32.594Z,6.20
2022-08-25T11:34:40.124Z,4.32
2022-08-25T11:35:51.909Z,4.65
2022-08-25T11:37:01.378Z,4.43
2022-08-25T11:38:19.708Z,4.80
2022-08-25T11:39:35.938Z,4.47
2022-08-25T11:40:45.968Z,5.57
2022-08-25T11:42:01.023Z,6.15
2022-08-25T11:43:13.602Z,5.22
2022-08-25T11:44:34.418Z,5.47
2022-08-25T11:45:55.195Z,4.45
2022-08-25T11:47:17.546Z,5.10
2022-08-25T11:48:32.512Z,5.13
2022-08-25T11:49:50.765Z,5.10
2022-08-25T11:51:02.294Z,5.13
2022-08-25T11:52:31.435Z,3.85
2022-08-25T11:53:37.665Z,5.60
2022-08-25T11:54:45.188Z,5.05
2022-08-25T11:55:52.070Z,4.68
2022-08-25T11:57:00.548Z,4.38
2022-08-25T11:58:32.360Z,5.88
2022-08-25T12:00:09.924Z,5.38
2022-08-25T12:01:53.631Z,5.18
2022-08-25T12:03:00.904Z,4.60
2022-08-25T12:04:15.108Z,5.25
2022-08-25T12:05:54.260Z,5.80
2022-08-25T12:07:20.350Z,4.85
2022-08-25T12:09:04.080Z,5.05
2022-08-25T12:10:21.686Z,5.53
2022-08-25T12:11:49.868Z,4.43
2022-08-25T12:13:23.421Z,4.53
2022-08-25T12:14:54.157Z,5.35
2022-08-25T12:16:00.680Z,4.82
2022-08-25T12:17:19.088Z,4.82
2022-08-25T12:18:45.636Z,4.53
2022-08-25T12:19:53.418Z,5.35
2022-08-25T12:21:15.959Z,5.88
2022-08-25T12:22:55.464Z,5.47
2022-08-25T12:24:15.698Z,4.72
2022-08-25T12:25:45.520Z,5.50
2022-08-25T12:26:57.746Z,4.57
2022-08-25T12:28:09.294Z,4.60
2022-08-25T12:29:16.431Z,5.00
2022-08-25T12:30:21.563Z,6.13
2022-08-25T12:31:34.943Z,5.20
2022-08-25T12:32:58.489Z,5.00
2022-08-25T12:34:15.408Z,4.95
2022-08-25T12:35:29.922Z,4.93
2022-08-25T12:36:36.072Z,4.70
2022-08-25T12:39:24.236Z,5.05
2022-08-25T12:40:33.752Z,5.18
2022-08-25T12:41:38.242Z,6.03
2022-08-25T12:42:44.281Z,5.95
2022-08-25T12:43:48.799Z,5.10
2022-08-25T12:45:25.725Z,5.28
2022-08-25T12:46:38.906Z,4.88
2022-08-25T12:47:44.773Z,5.97
2022-08-25T12:48:59.153Z,5.38
2022-08-25T12:50:29.671Z,4.55
2022-08-25T12:51:58.988Z,5.07
2022-08-25T12:53:11.529Z,4.65
2022-08-25T12:54:22.752Z,5.00
2022-08-25T12:55:26.999Z,5.28
2022-08-25T12:56:37.462Z,4.45
2022-08-25T12:57:43.958Z,4.88
2022-08-25T12:59:00.346Z,6.07
2022-08-25T13:00:18.415Z,5.03
2022-08-25T13:01:35.437Z,4.70
2022-08-25T13:03:13.451Z,5.18
2022-08-25T13:04:41.626Z,5.68
2022-08-25T13:06:18.662Z,4.88
2022-08-25T13:07:34.846Z,5.22
2022-08-25T13:09:00.675Z,5.53
2022-08-25T13:10:23.549Z,4.65
2022-08-25T13:11:35.290Z,4.35
2022-08-25T13:12:43.733Z,5.05
2022-08-25T13:13:52.354Z,4.57
2022-08-25T13:14:56.817Z,4.40
2022-08-25T13:16:02.616Z,4.05
2022-08-25T13:17:06.328Z,4.68
2022-08-25T13:18:31.595Z,4.55
2022-08-25T13:19:36.912Z,4.63
2022-08-25T13:20:40.169Z,5.20
2022-08-25T13:21:49.803Z,4.57
2022-08-25T13:22:58.270Z,4.82
2022-08-25T13:25:32.198Z,5.60
2022-08-25T13:26:48.022Z,4.45
2022-08-25T13:27:53.941Z,4.32
2022-08-25T13:29:02.925Z,4.53
2022-08-25T13:30:25.208Z,4.10
2022-08-25T13:31:30.775Z,4.30
2022-08-25T13:32:35.901Z,4.78
2022-08-25T13:33:40.149Z,4.70
2022-08-25T13:34:43.925Z,5.47
2022-08-25T13:35:52.182Z,4.25
2022-08-25T13:37:13.929Z,4.82
2022-08-25T13:38:20.166Z,4.47
2022-08-25T13:39:52.800Z,3.92
2022-08-25T13:40:52.086Z,4.57
2022-08-25T13:41:58.141Z,4.10
2022-08-25T13:43:12.226Z,5.45
2022-08-25T13:44:17.828Z,4.40
2022-08-25T13:45:23.839Z,4.75
2022-08-25T13:46:28.211Z,4.45
2022-08-25T13:47:43.842Z,4.80
2022-08-25T13:48:50.060Z,4.72
2022-08-25T13:49:56.617Z,5.32
2022-08-25T13:51:11.534Z,4.35
2022-08-25T13:52:20.981Z,4.82
2022-08-25T13:53:31.647Z,4.57
2022-08-25T13:54:41.092Z,5.10
2022-08-25T13:55:52.650Z,3.88
2022-08-25T13:57:05.830Z,3.90
2022-08-25T13:58:16.122Z,4.32
2022-08-25T13:59:34.318Z,4.38
2022-08-25T14:00:47.277Z,3.95
2022-08-25T14:01:54.418Z,4.10
2022-08-25T14:02:58.663Z,4.97
2022-08-25T14:04:22.081Z,5.35
2022-08-25T14:05:41.413Z,4.57
2022-08-25T14:06:45.456Z,4.05
2022-08-25T14:08:09.178Z,4.78
2022-08-25T14:09:25.939Z,5.25
2022-08-25T14:10:36.974Z,4.70
2022-08-25T14:11:46.709Z,4.38
2022-08-25T14:13:09.661Z,3.72
2022-08-25T14:14:15.559Z,3.97
2022-08-25T14:15:33.453Z,4.22
2022-08-25T14:16:43.459Z,4.47
2022-08-25T14:17:51.452Z,4.20
2022-08-25T14:18:58.884Z,4.45
2022-08-25T14:20:05.308Z,4.60
2022-08-25T14:21:12.225Z,4.22
2022-08-25T14:22:16.298Z,4.75
2022-08-25T14:23:21.220Z,4.03
2022-08-25T14:24:26.009Z,4.25
2022-08-25T14:25:30.362Z,4.07
2022-08-25T14:26:34.718Z,3.90
2022-08-25T14:28:03.731Z,4.38
2022-08-25T14:29:08.194Z,4.85
2022-08-25T14:30:13.897Z,4.03
2022-08-25T14:31:21.349Z,4.03
2022-08-25T14:32:25.576Z,4.10
2022-08-25T14:33:33.723Z,4.05
2022-08-25T14:34:39.523Z,4.28
2022-08-25T14:35:48.088Z,3.72
2022-08-25T14:36:52.280Z,4.13
2022-08-25T14:37:55.598Z,3.88
2022-08-25T14:38:59.647Z,4.13
2022-08-25T14:40:05.935Z,4.10
2022-08-25T14:42:18.159Z,4.15
2022-08-25T14:43:31.362Z,4.03
2022-08-25T14:44:36.386Z,4.15
2022-08-25T14:45:42.140Z,3.90
2022-08-25T14:46:48.045Z,4.18
2022-08-25T14:47:51.179Z,4.13
2022-08-25T14:48:57.512Z,3.65
2022-08-25T14:50:01.997Z,4.05
2022-08-25T14:51:07.108Z,4.18
2022-08-25T14:52:15.607Z,3.40
2022-08-25T14:53:21.033Z,3.90
2022-08-25T14:54:26.630Z,4.03
2022-08-25T14:55:32.244Z,4.43
2022-08-25T14:56:36.910Z,3.50
2022-08-25T14:57:42.840Z,4.20
2022-08-25T14:58:51.596Z,3.97
2022-08-25T14:59:58.717Z,4.47
2022-08-25T15:01:03.485Z,4.28
2022-08-25T15:02:09.131Z,3.90
2022-08-25T15:03:13.550Z,4.50
2022-08-25T15:04:19.521Z,4.80
2022-08-25T15:05:25.910Z,4.30
2022-08-25T15:06:30.266Z,3.80
2022-08-25T15:07:52.337Z,4.85
2022-08-25T15:09:14.055Z,4.65
2022-08-25T15:10:18.680Z,3.78
2022-08-25T15:11:25.907Z,4.70
2022-08-25T15:12:46.482Z,4.15
2022-08-25T15:13:53.450Z,3.50
2022-08-25T15:14:57.738Z,3.75
2022-08-25T15:16:01.981Z,3.58
2022-08-25T15:17:07.199Z,5.18
2022-08-25T15:18:10.499Z,4.57
2022-08-25T15:19:17.144Z,4.93
2022-08-25T15:20:20.369Z,5.00
2022-08-25T15:21:24.652Z,4.18
2022-08-25T15:22:28.790Z,4.30
2022-08-25T15:23:33.994Z,3.97
2022-08-25T15:24:39.866Z,4.20
2022-08-25T15:25:43.433Z,4.68
2022-08-25T15:26:56.313Z,3.92
2022-08-25T15:28:01.677Z,4.22
2022-08-25T15:29:07.479Z,3.72
2022-08-25T15:30:15.479Z,4.60
2022-08-25T15:31:21.784Z,4.95
2022-08-25T15:32:25.170Z,4.15
2022-08-25T15:33:32.156Z,4.10
2022-08-25T15:34:37.974Z,4.70
2022-08-25T15:35:41.648Z,4.20
2022-08-25T15:36:50.921Z,4.38
2022-08-25T15:37:53.939Z,4.60
2022-08-25T15:38:58.394Z,4.10
2022-08-25T15:40:07.116Z,5.13
2022-08-25T15:41:11.821Z,4.65
2022-08-25T15:42:16.927Z,4.53
2022-08-25T15:43:21.308Z,4.27
2022-08-25T15:44:29.724Z,4.70
2022-08-25T15:45:36.461Z,4.23
2022-08-25T15:46:41.790Z,3.83
2022-08-25T15:47:54.116Z,4.57
2022-08-25T15:48:57.925Z,4.40
2022-08-25T15:50:07.309Z,4.33
2022-08-25T15:51:12.521Z,4.80
2022-08-25T15:52:17.487Z,4.40
2022-08-25T15:53:21.639Z,4.23
2022-08-25T15:54:27.112Z,4.70
2022-08-25T15:55:31.386Z,4.27
2022-08-25T15:56:36.741Z,3.83
2022-08-25T15:57:42.266Z,4.83
2022-08-25T15:58:49.945Z,5.17
2022-08-25T15:59:55.748Z,4.43
2022-08-25T16:01:01.410Z,4.30
2022-08-25T16:02:06.724Z,4.37
2022-08-25T16:03:19.213Z,3.93
2022-08-25T16:04:23.415Z,4.10
2022-08-25T16:05:27.558Z,4.57
2022-08-25T16:06:34.201Z,4.40
2022-08-25T16:07:38.332Z,4.53
2022-08-25T16:08:43.328Z,3.90
2022-08-25T16:09:47.970Z,5.23
2022-08-25T16:10:51.079Z,4.80
2022-08-25T16:11:58.290Z,4.90
2022-08-25T16:13:05.655Z,4.23
2022-08-25T16:14:09.907Z,5.00
2022-08-25T16:15:16.289Z,4.40
2022-08-25T16:16:20.796Z,5.30
2022-08-25T16:17:25.070Z,4.83
2022-08-25T16:18:28.194Z,4.53
2022-08-25T16:19:33.829Z,5.23